Time,TemperatureF,DewpointF,PressureIn,WindDirection,WindDirectionDegrees,WindSpeedMPH,WindSpeedGustMPH,Humidity,HourlyPrecipIn,Conditions,Clouds,dailyrainin,SoftwareType,DateUTC
2013-04-30 00:01:00,42.5,36.8,30.05,WSW,256,4.0,4.0,80,0.00,CLR,,0.00,WeatherDisplay:10.37,2013-04-29 23:01:00,
2013-04-30 00:06:00,42.5,36.8,30.05,West,271,3.5,3.5,80,0.00,CLR,,0.00,WeatherDisplay:10.37,2013-04-29 23:06:00,
2013-04-30 00:11:00,42.6,36.9,30.05,West,271,5.8,5.8,80,0.00,CLR,,0.00,WeatherDisplay:10.37,2013-04-29 23:11:00,
2013-04-30 00:16:00,42.6,36.5,30.06,SW,235,7.0,7.0,79,0.00,CLR,,0.00,WeatherDisplay:10.37,2013-04-29 23:16:00,
2013-04-30 00:21:00,42.7,36.6,30.06,West,274,9.2,9.2,79,0.00,CLR,,0.00,WeatherDisplay:10.37,2013-04-29 23:21:00,
2013-04-30 00:26:00,42.7,36.6,30.06,West,266,6.9,6.9,79,0.00,CLR,,0.00,WeatherDisplay:10.37,2013-04-29 23:26:00,
2013-04-30 00:31:00,42.7,36.6,30.07,West,259,5.8,5.8,79,0.00,CLR,,0.00,WeatherDisplay:10.37,2013-04-29 23:31:00,
2013-04-30 00:36:00,42.7,36.6,30.07,West,264,5.8,5.8,79,0.00,CLR,,0.00,WeatherDisplay:10.37,2013-04-29 23:36:00,
2013-04-30 00:41:00,42.7,36.6,30.07,West,259,8.1,8.1,79,0.00,CLR,,0.00,WeatherDisplay:10.37,2013-04-29 23:41:00,
2013-04-30 00:46:00,42.8,36.7,30.08,West,260,6.9,6.9,79,0.00,CLR,,0.00,WeatherDisplay:10.37,2013-04-29 23:46:00,
2013-04-30 00:51:00,42.8,36.7,30.08,West,268,5.8,5.8,79,0.00,CLR,,0.00,WeatherDisplay:10.37,2013-04-29 23:51:00,
2013-04-30 00:56:00,42.7,36.6,30.08,West,274,4.6,4.6,79,0.00,CLR,,0.00,WeatherDisplay:10.37,2013-04-29 23:56:00,
2013-04-30 01:01:00,42.6,36.5,30.08,West,277,6.9,6.9,79,0.00,CLR,,0.00,WeatherDisplay:10.37,2013-04-30 00:01:00,
2013-04-30 01:06:00,42.5,36.4,30.08,West,275,5.8,5.8,79,0.00,CLR,,0.00,WeatherDisplay:10.37,2013-04-30 00:06:00,
2013-04-30 01:11:00,42.4,36.3,30.08,West,262,4.6,4.6,79,0.00,CLR,,0.00,WeatherDisplay:10.37,2013-04-30 00:11:00,
2013-04-30 01:16:00,42.2,36.2,30.09,West,272,5.8,5.8,79,0.00,CLR,,0.00,WeatherDisplay:10.37,2013-04-30 00:16:00,
2013-04-30 01:21:00,42.0,36.0,30.09,West,272,5.8,5.8,79,0.00,CLR,,0.00,WeatherDisplay:10.37,2013-04-30 00:21:00,
2013-04-30 01:26:00,41.9,35.9,30.09,West,272,3.5,3.5,79,0.00,CLR,,0.00,WeatherDisplay:10.37,2013-04-30 00:26:00,
2013-04-30 01:31:00,41.8,36.1,30.10,West,272,4.0,4.0,80,0.00,CLR,,0.00,WeatherDisplay:10.37,2013-04-30 00:31:00,
2013-04-30 01:36:00,41.7,36.0,30.10,West,272,3.5,3.5,80,0.00,CLR,,0.00,WeatherDisplay:10.37,2013-04-30 00:36:00,
2013-04-30 01:41:00,41.8,36.1,30.10,West,272,3.5,3.5,80,0.00,CLR,,0.00,WeatherDisplay:10.37,2013-04-30 00:41:00,
2013-04-30 01:46:00,41.8,36.1,30.10,West,272,3.5,3.5,80,0.00,CLR,,0.00,WeatherDisplay:10.37,2013-04-30 00:46:00,
2013-04-30 01:51:00,41.7,36.0,30.10,West,272,5.0,5.0,80,0.00,CLR,,0.00,WeatherDisplay:10.37,2013-04-30 00:51:00,
2013-04-30 01:56:00,41.8,36.1,30.10,West,277,5.0,5.0,80,0.00,CLR,,0.00,WeatherDisplay:10.37,2013-04-30 00:56:00,
2013-04-30 02:01:00,41.9,36.2,30.11,West,277,4.6,4.6,80,0.00,CLR,,0.00,WeatherDisplay:10.37,2013-04-30 01:01:00,
2013-04-30 02:06:00,42.0,36.3,30.11,West,275,5.8,5.8,80,0.00,CLR,,0.00,WeatherDisplay:10.37,2013-04-30 01:06:00,
2013-04-30 02:11:00,42.0,36.3,30.11,West,276,4.0,4.0,80,0.00,CLR,,0.00,WeatherDisplay:10.37,2013-04-30 01:11:00,
2013-04-30 02:16:00,42.0,36.3,30.11,West,275,3.5,3.5,80,0.00,CLR,,0.00,WeatherDisplay:10.37,2013-04-30 01:16:00,
2013-04-30 02:21:00,41.9,36.2,30.11,West,270,4.6,4.6,80,0.00,CLR,,0.00,WeatherDisplay:10.37,2013-04-30 01:21:00,
2013-04-30 02:26:00,41.7,36.0,30.11,West,271,6.9,6.9,80,0.00,CLR,,0.00,WeatherDisplay:10.37,2013-04-30 01:26:00,
2013-04-30 02:31:00,41.6,35.9,30.12,West,271,4.6,4.6,80,0.00,CLR,,0.00,WeatherDisplay:10.37,2013-04-30 01:31:00,
2013-04-30 02:36:00,41.3,35.9,30.12,West,273,6.9,6.9,81,0.00,CLR,,0.00,WeatherDisplay:10.37,2013-04-30 01:36:00,
2013-04-30 02:41:00,41.1,35.7,30.12,West,265,4.6,4.6,81,0.00,CLR,,0.00,WeatherDisplay:10.37,2013-04-30 01:41:00,
2013-04-30 02:46:00,40.9,35.5,30.12,West,264,3.5,3.5,81,0.00,CLR,,0.00,WeatherDisplay:10.37,2013-04-30 01:46:00,
2013-04-30 02:51:00,40.6,35.5,30.12,West,264,4.6,4.6,82,0.00,CLR,,0.00,WeatherDisplay:10.37,2013-04-30 01:51:00,
2013-04-30 02:56:00,40.4,35.3,30.12,West,259,3.5,3.5,82,0.00,CLR,,0.00,WeatherDisplay:10.37,2013-04-30 01:56:00,
2013-04-30 03:01:00,40.2,35.4,30.13,West,260,5.8,5.8,83,0.00,CLR,,0.00,WeatherDisplay:10.37,2013-04-30 02:01:00,
2013-04-30 03:06:00,40.1,35.4,30.13,West,261,3.5,3.5,83,0.00,CLR,,0.00,WeatherDisplay:10.37,2013-04-30 02:06:00,
2013-04-30 03:11:00,39.9,35.2,30.13,West,261,3.5,3.5,83,0.00,CLR,,0.00,WeatherDisplay:10.37,2013-04-30 02:11:00,
2013-04-30 03:16:00,39.8,35.1,30.13,West,261,4.6,4.6,83,0.00,CLR,,0.00,WeatherDisplay:10.37,2013-04-30 02:16:00,
2013-04-30 03:21:00,39.7,35.3,30.13,West,261,3.5,3.5,84,0.00,CLR,,0.00,WeatherDisplay:10.37,2013-04-30 02:21:00,
2013-04-30 03:26:00,39.6,35.2,30.13,West,261,3.5,3.5,84,0.00,CLR,,0.00,WeatherDisplay:10.37,2013-04-30 02:26:00,
2013-04-30 03:31:00,39.5,35.1,30.14,West,261,3.5,3.5,84,0.00,CLR,,0.00,WeatherDisplay:10.37,2013-04-30 02:31:00,
2013-04-30 03:36:00,39.3,34.9,30.14,West,261,5.8,5.8,84,0.00,CLR,,0.00,WeatherDisplay:10.37,2013-04-30 02:36:00,
2013-04-30 03:41:00,39.2,34.8,30.14,West,261,3.5,3.5,84,0.00,CLR,,0.00,WeatherDisplay:10.37,2013-04-30 02:41:00,
2013-04-30 03:46:00,39.1,34.7,30.15,West,260,4.6,4.6,84,0.00,CLR,,0.00,WeatherDisplay:10.37,2013-04-30 02:46:00,
2013-04-30 03:51:00,39.0,34.6,30.15,West,260,3.5,3.5,84,0.00,CLR,,0.00,WeatherDisplay:10.37,2013-04-30 02:51:00,
2013-04-30 03:56:00,38.8,34.4,30.15,West,259,3.5,3.5,84,0.00,CLR,,0.00,WeatherDisplay:10.37,2013-04-30 02:56:00,
2013-04-30 04:01:00,38.8,34.4,30.15,West,259,3.5,3.5,84,0.00,CLR,,0.00,WeatherDisplay:10.37,2013-04-30 03:01:00,
2013-04-30 04:06:00,38.7,34.3,30.15,West,259,3.5,3.5,84,0.00,CLR,,0.00,WeatherDisplay:10.37,2013-04-30 03:06:00,
2013-04-30 04:11:00,38.6,34.2,30.15,West,259,5.8,5.8,84,0.00,CLR,,0.00,WeatherDisplay:10.37,2013-04-30 03:11:00,
2013-04-30 04:16:00,38.5,34.1,30.16,WSW,241,3.5,3.5,84,0.00,CLR,,0.00,WeatherDisplay:10.37,2013-04-30 03:16:00,
2013-04-30 04:21:00,38.5,34.1,30.16,WSW,240,3.5,3.5,84,0.00,CLR,,0.00,WeatherDisplay:10.37,2013-04-30 03:21:00,
2013-04-30 04:26:00,38.5,34.1,30.16,WSW,240,3.5,3.5,84,0.00,CLR,,0.00,WeatherDisplay:10.37,2013-04-30 03:26:00,
2013-04-30 04:31:00,38.4,34.0,30.16,WSW,240,3.5,3.5,84,0.00,CLR,,0.00,WeatherDisplay:10.37,2013-04-30 03:31:00,
2013-04-30 04:36:00,38.3,33.9,30.16,WSW,240,3.0,3.0,84,0.00,CLR,,0.00,WeatherDisplay:10.37,2013-04-30 03:36:00,
2013-04-30 04:41:00,38.2,33.8,30.16,WSW,240,4.0,4.0,84,0.00,CLR,,0.00,WeatherDisplay:10.37,2013-04-30 03:41:00,
2013-04-30 04:46:00,38.2,34.1,30.17,WSW,240,5.0,5.0,85,0.00,CLR,,0.00,WeatherDisplay:10.37,2013-04-30 03:46:00,
2013-04-30 04:51:00,38.3,34.2,30.17,WSW,240,6.9,6.9,85,0.00,CLR,,0.00,WeatherDisplay:10.37,2013-04-30 03:51:00,
2013-04-30 04:56:00,38.4,34.3,30.17,WSW,241,3.5,3.5,85,0.00,CLR,,0.00,WeatherDisplay:10.37,2013-04-30 03:56:00,
2013-04-30 05:01:00,38.4,34.3,30.17,WSW,241,3.5,3.5,85,0.00,CLR,,0.00,WeatherDisplay:10.37,2013-04-30 04:01:00,
2013-04-30 05:02:00,38.4,34.3,30.17,WSW,240,3.5,3.5,85,0.00,CLR,,0.00,WeatherDisplay:10.37,2013-04-30 04:02:00,
2013-04-30 05:05:00,38.3,34.2,30.17,WSW,241,3.5,3.5,85,0.00,CLR,,0.00,WeatherDisplay:10.37,2013-04-30 04:05:00,
2013-04-30 05:10:00,38.3,34.2,30.17,WSW,240,3.5,3.5,85,0.00,CLR,,0.00,WeatherDisplay:10.37,2013-04-30 04:10:00,
2013-04-30 05:15:00,38.2,34.1,30.18,WSW,240,3.5,3.5,85,0.00,CLR,,0.00,WeatherDisplay:10.37,2013-04-30 04:15:00,
2013-04-30 05:20:00,38.0,33.9,30.18,WSW,240,3.5,3.5,85,0.00,CLR,,0.00,WeatherDisplay:10.37,2013-04-30 04:20:00,
2013-04-30 05:25:00,38.0,34.2,30.18,WSW,240,3.5,3.5,86,0.00,CLR,,0.00,WeatherDisplay:10.37,2013-04-30 04:25:00,
2013-04-30 05:30:00,38.0,34.2,30.18,WSW,241,3.5,3.5,86,0.00,CLR,,0.00,WeatherDisplay:10.37,2013-04-30 04:30:00,
2013-04-30 05:35:00,38.0,34.2,30.18,WSW,239,4.6,4.6,86,0.00,CLR,,0.00,WeatherDisplay:10.37,2013-04-30 04:35:00,
2013-04-30 05:40:00,38.0,34.2,30.18,WSW,239,3.5,3.5,86,0.00,CLR,,0.00,WeatherDisplay:10.37,2013-04-30 04:40:00,
2013-04-30 05:45:00,38.1,34.3,30.19,WSW,238,2.3,2.3,86,0.00,CLR,,0.00,WeatherDisplay:10.37,2013-04-30 04:45:00,
2013-04-30 05:50:00,38.1,34.3,30.19,WSW,238,3.5,3.5,86,0.00,CLR,,0.00,WeatherDisplay:10.37,2013-04-30 04:50:00,
2013-04-30 05:55:00,38.1,34.3,30.19,WSW,239,1.1,1.1,86,0.00,CLR,,0.00,WeatherDisplay:10.37,2013-04-30 04:55:00,
2013-04-30 06:00:00,38.1,34.3,30.20,SW,236,4.0,4.0,86,0.00,CLR,,0.00,WeatherDisplay:10.37,2013-04-30 05:00:00,
2013-04-30 06:05:00,38.1,34.3,30.20,SW,236,3.5,3.5,86,0.00,CLR,,0.00,WeatherDisplay:10.37,2013-04-30 05:05:00,
2013-04-30 06:10:00,38.0,34.2,30.20,SW,236,1.1,1.1,86,0.00,CLR,,0.00,WeatherDisplay:10.37,2013-04-30 05:10:00,
2013-04-30 06:15:00,38.0,34.2,30.21,SW,236,1.0,0.0,86,0.00,CLR,,0.00,WeatherDisplay:10.37,2013-04-30 05:15:00,
2013-04-30 06:20:00,38.0,33.9,30.21,SW,236,0.0,0.0,85,0.00,CLR,,0.00,WeatherDisplay:10.37,2013-04-30 05:20:00,
2013-04-30 06:25:00,37.9,34.1,30.21,WSW,238,2.3,2.3,86,0.00,CLR,,0.00,WeatherDisplay:10.37,2013-04-30 05:25:00,
2013-04-30 06:30:00,37.8,34.0,30.21,WSW,238,2.3,2.3,86,0.00,CLR,,0.00,WeatherDisplay:10.37,2013-04-30 05:30:00,
2013-04-30 06:35:00,37.8,34.0,30.21,WSW,238,3.5,3.5,86,0.00,CLR,,0.00,WeatherDisplay:10.37,2013-04-30 05:35:00,
2013-04-30 06:40:00,37.9,34.4,30.21,WSW,238,3.5,3.5,87,0.00,CLR,,0.00,WeatherDisplay:10.37,2013-04-30 05:40:00,
2013-04-30 06:45:00,37.9,34.4,30.22,WSW,238,3.5,3.5,87,0.00,CLR,,0.00,WeatherDisplay:10.37,2013-04-30 05:45:00,
2013-04-30 06:50:00,38.0,34.5,30.22,WSW,238,3.5,3.5,87,0.00,CLR,,0.00,WeatherDisplay:10.37,2013-04-30 05:50:00,
2013-04-30 06:55:00,38.3,34.8,30.22,WSW,238,3.5,3.5,87,0.00,CLR,,0.00,WeatherDisplay:10.37,2013-04-30 05:55:00,
2013-04-30 07:00:00,38.7,35.5,30.22,WSW,243,5.0,5.0,88,0.00,CLR,,0.00,WeatherDisplay:10.37,2013-04-30 06:00:00,
2013-04-30 07:05:00,39.2,35.7,30.22,NW,314,3.5,3.5,87,0.00,CLR,,0.00,WeatherDisplay:10.37,2013-04-30 06:05:00,
2013-04-30 07:10:00,39.7,35.9,30.22,NW,314,3.5,3.5,86,0.00,CLR,,0.00,WeatherDisplay:10.37,2013-04-30 06:10:00,
2013-04-30 07:15:00,40.3,36.1,30.22,NW,315,5.0,5.0,85,0.00,CLR,,0.00,WeatherDisplay:10.37,2013-04-30 06:15:00,
2013-04-30 07:20:00,40.8,36.3,30.22,NW,314,6.0,6.0,84,0.00,CLR,,0.00,WeatherDisplay:10.37,2013-04-30 06:20:00,
2013-04-30 07:25:00,41.3,36.8,30.22,WNW,286,6.9,6.9,84,0.00,CLR,,0.00,WeatherDisplay:10.37,2013-04-30 06:25:00,
2013-04-30 07:30:00,41.7,36.9,30.23,WNW,286,5.8,5.8,83,0.00,CLR,,0.00,WeatherDisplay:10.37,2013-04-30 06:30:00,
2013-04-30 07:35:00,42.1,36.7,30.23,West,279,5.8,5.8,81,0.00,CLR,,0.00,WeatherDisplay:10.37,2013-04-30 06:35:00,
2013-04-30 07:40:00,42.5,36.8,30.23,West,272,6.9,6.9,80,0.00,CLR,,0.00,WeatherDisplay:10.37,2013-04-30 06:40:00,
2013-04-30 07:45:00,42.9,36.5,30.23,West,275,6.0,6.0,78,0.00,CLR,,0.00,WeatherDisplay:10.37,2013-04-30 06:45:00,
2013-04-30 07:50:00,43.2,36.5,30.23,West,279,5.8,5.8,77,0.00,CLR,,0.00,WeatherDisplay:10.37,2013-04-30 06:50:00,
2013-04-30 07:55:00,43.4,36.7,30.23,WNW,293,6.9,6.9,77,0.00,CLR,,0.00,WeatherDisplay:10.37,2013-04-30 06:55:00,
2013-04-30 08:00:00,43.7,37.0,30.24,West,279,5.8,5.8,77,0.00,CLR,,0.00,WeatherDisplay:10.37,2013-04-30 07:00:00,
2013-04-30 08:05:00,44.0,36.6,30.24,WNW,300,9.2,9.2,75,0.00,CLR,,0.00,WeatherDisplay:10.37,2013-04-30 07:05:00,
2013-04-30 08:10:00,44.2,36.8,30.24,WNW,300,3.5,3.5,75,0.00,CLR,,0.00,WeatherDisplay:10.37,2013-04-30 07:10:00,
2013-04-30 08:15:00,44.5,37.1,30.24,WNW,288,5.8,5.8,75,0.00,CLR,,0.00,WeatherDisplay:10.37,2013-04-30 07:15:00,
2013-04-30 08:20:00,44.9,37.1,30.24,WNW,297,5.8,5.8,74,0.00,CLR,,0.00,WeatherDisplay:10.37,2013-04-30 07:20:00,
2013-04-30 08:25:00,45.3,36.4,30.24,NW,311,6.9,6.9,71,0.00,CLR,,0.00,WeatherDisplay:10.37,2013-04-30 07:25:00,
2013-04-30 08:30:00,45.6,36.7,30.24,NW,312,5.0,5.0,71,0.00,CLR,,0.00,WeatherDisplay:10.37,2013-04-30 07:30:00,
2013-04-30 08:35:00,45.8,36.2,30.24,WNW,292,6.0,6.0,69,0.00,CLR,,0.00,WeatherDisplay:10.37,2013-04-30 07:35:00,
2013-04-30 08:40:00,45.9,35.9,30.24,WNW,293,5.8,5.8,68,0.00,CLR,,0.00,WeatherDisplay:10.37,2013-04-30 07:40:00,
2013-04-30 08:45:00,46.1,36.9,30.24,WNW,300,6.9,6.9,70,0.00,CLR,,0.00,WeatherDisplay:10.37,2013-04-30 07:45:00,
2013-04-30 08:50:00,46.3,36.7,30.24,NNW,345,5.8,5.8,69,0.00,CLR,,0.00,WeatherDisplay:10.37,2013-04-30 07:50:00,
2013-04-30 08:55:00,46.6,36.6,30.24,NNW,330,4.6,4.6,68,0.00,CLR,,0.00,WeatherDisplay:10.37,2013-04-30 07:55:00,
2013-04-30 09:00:00,46.8,35.6,30.24,NW,309,4.6,4.6,65,0.00,CLR,,0.00,WeatherDisplay:10.37,2013-04-30 08:00:00,
2013-04-30 09:05:00,46.9,34.1,30.24,NW,313,3.5,3.5,61,0.00,CLR,,0.00,WeatherDisplay:10.37,2013-04-30 08:05:00,
2013-04-30 09:10:00,47.1,33.9,30.24,NW,313,1.1,1.1,60,0.00,CLR,,0.00,WeatherDisplay:10.37,2013-04-30 08:10:00,
2013-04-30 09:15:00,47.3,35.3,30.24,NW,313,2.3,2.3,63,0.00,CLR,,0.00,WeatherDisplay:10.37,2013-04-30 08:15:00,
2013-04-30 09:20:00,47.6,35.6,30.24,NW,313,3.5,3.5,63,0.00,CLR,,0.00,WeatherDisplay:10.37,2013-04-30 08:20:00,
2013-04-30 09:25:00,47.9,35.5,30.24,NNE,12,4.6,4.6,62,0.00,CLR,,0.00,WeatherDisplay:10.37,2013-04-30 08:25:00,
2013-04-30 09:30:00,48.2,36.2,30.24,NNE,12,1.1,1.1,63,0.00,CLR,,0.00,WeatherDisplay:10.37,2013-04-30 08:30:00,
2013-04-30 09:35:00,48.5,37.7,30.24,NNE,12,2.3,2.3,66,0.00,CLR,,0.00,WeatherDisplay:10.37,2013-04-30 08:35:00,
2013-04-30 09:40:00,48.8,36.8,30.24,NNE,12,3.0,3.0,63,0.00,CLR,,0.00,WeatherDisplay:10.37,2013-04-30 08:40:00,
2013-04-30 09:45:00,49.2,35.9,30.24,NNE,12,1.1,1.1,60,0.00,CLR,,0.00,WeatherDisplay:10.37,2013-04-30 08:45:00,
2013-04-30 09:50:00,49.5,36.6,30.24,NNE,12,0.0,0.0,61,0.00,CLR,,0.00,WeatherDisplay:10.37,2013-04-30 08:50:00,
2013-04-30 09:55:00,49.8,35.2,30.24,SE,142,6.0,6.0,57,0.00,CLR,,0.00,WeatherDisplay:10.37,2013-04-30 08:55:00,
2013-04-30 10:00:00,50.1,35.4,30.24,SE,143,0.0,0.0,57,0.00,CLR,,0.00,WeatherDisplay:10.37,2013-04-30 09:00:00,
2013-04-30 10:05:00,50.5,36.3,30.24,SE,143,1.1,1.1,58,0.00,CLR,,0.00,WeatherDisplay:10.37,2013-04-30 09:05:00,
2013-04-30 10:10:00,51.0,35.4,30.24,SE,142,5.0,5.0,55,0.00,CLR,,0.00,WeatherDisplay:10.37,2013-04-30 09:10:00,
2013-04-30 10:15:00,51.4,35.3,30.25,SSE,161,2.3,2.3,54,0.00,CLR,,0.00,WeatherDisplay:10.37,2013-04-30 09:15:00,
2013-04-30 10:20:00,51.6,32.0,30.25,WNW,283,3.0,3.0,47,0.00,CLR,,0.00,WeatherDisplay:10.37,2013-04-30 09:20:00,
2013-04-30 10:25:00,51.8,31.7,30.25,West,266,3.5,3.5,46,0.00,CLR,,0.00,WeatherDisplay:10.37,2013-04-30 09:25:00,
2013-04-30 10:30:00,51.9,29.5,30.25,West,267,2.3,2.3,42,0.00,CLR,,0.00,WeatherDisplay:10.37,2013-04-30 09:30:00,
2013-04-30 10:35:00,52.3,31.6,30.25,West,267,2.0,2.0,45,0.00,CLR,,0.00,WeatherDisplay:10.37,2013-04-30 09:35:00,
2013-04-30 10:40:00,52.8,33.1,30.25,West,267,2.3,2.3,47,0.00,CLR,,0.00,WeatherDisplay:10.37,2013-04-30 09:40:00,
2013-04-30 10:45:00,53.2,34.0,30.24,West,267,3.5,3.5,48,0.00,CLR,,0.00,WeatherDisplay:10.37,2013-04-30 09:45:00,
2013-04-30 10:50:00,53.6,31.0,30.24,West,265,4.6,4.6,42,0.00,CLR,,0.00,WeatherDisplay:10.37,2013-04-30 09:50:00,
2013-04-30 10:55:00,53.7,31.1,30.24,South,190,4.6,4.6,42,0.00,CLR,,0.00,WeatherDisplay:10.37,2013-04-30 09:55:00,
2013-04-30 11:00:00,53.9,30.1,30.24,SW,227,3.5,3.5,40,0.00,CLR,,0.00,WeatherDisplay:10.37,2013-04-30 10:00:00,
2013-04-30 11:05:00,53.4,29.0,30.24,WSW,238,5.8,5.8,39,0.00,CLR,,0.00,WeatherDisplay:10.37,2013-04-30 10:05:00,
2013-04-30 11:10:00,53.4,27.8,30.24,NW,309,6.9,6.9,37,0.00,CLR,,0.00,WeatherDisplay:10.37,2013-04-30 10:10:00,
2013-04-30 11:15:00,53.1,30.0,30.25,West,275,2.3,2.3,41,0.00,CLR,,0.00,WeatherDisplay:10.37,2013-04-30 10:15:00,
2013-04-30 11:20:00,52.9,29.8,30.25,WNW,288,4.6,4.6,41,0.00,CLR,,0.00,WeatherDisplay:10.37,2013-04-30 10:20:00,
2013-04-30 11:25:00,53.2,30.1,30.25,SW,227,5.0,5.0,41,0.00,CLR,,0.00,WeatherDisplay:10.37,2013-04-30 10:25:00,
2013-04-30 11:30:00,53.3,32.5,30.25,SW,232,3.5,3.5,45,0.00,CLR,,0.00,WeatherDisplay:10.37,2013-04-30 10:30:00,
2013-04-30 11:35:00,53.0,31.1,30.25,SSW,212,6.9,6.9,43,0.00,CLR,,0.00,WeatherDisplay:10.37,2013-04-30 10:35:00,
2013-04-30 11:40:00,52.9,32.1,30.25,WSW,240,6.9,6.9,45,0.00,CLR,,0.00,WeatherDisplay:10.37,2013-04-30 10:40:00,
2013-04-30 11:45:00,53.1,30.6,30.25,West,277,6.9,6.9,42,0.00,CLR,,0.00,WeatherDisplay:10.37,2013-04-30 10:45:00,
2013-04-30 11:50:00,53.4,30.9,30.25,SW,233,10.4,10.4,42,0.00,CLR,,0.00,WeatherDisplay:10.37,2013-04-30 10:50:00,
2013-04-30 11:55:00,53.6,32.8,30.25,SSW,192,3.0,3.0,45,0.00,CLR,,0.00,WeatherDisplay:10.37,2013-04-30 10:55:00,
2013-04-30 12:00:00,54.1,32.1,30.25,South,169,10.4,10.4,43,0.00,CLR,,0.00,WeatherDisplay:10.37,2013-04-30 11:00:00,
2013-04-30 12:05:00,54.3,29.8,30.25,SW,222,11.5,11.5,39,0.00,CLR,,0.00,WeatherDisplay:10.37,2013-04-30 11:05:00,
2013-04-30 12:10:00,54.7,31.4,30.25,SW,230,4.6,4.6,41,0.00,CLR,,0.00,WeatherDisplay:10.37,2013-04-30 11:10:00,
2013-04-30 12:15:00,54.8,30.3,30.24,SSW,194,10.4,10.4,39,0.00,CLR,,0.00,WeatherDisplay:10.37,2013-04-30 11:15:00,
2013-04-30 12:20:00,55.0,32.3,30.24,SSW,194,10.4,10.4,42,0.00,CLR,,0.00,WeatherDisplay:10.37,2013-04-30 11:20:00,
2013-04-30 12:25:00,55.1,27.9,30.24,SSW,198,11.5,11.5,35,0.00,CLR,,0.00,WeatherDisplay:10.37,2013-04-30 11:25:00,
2013-04-30 12:30:00,55.2,28.7,30.24,WNW,289,6.9,6.9,36,0.00,CLR,,0.00,WeatherDisplay:10.37,2013-04-30 11:30:00,
2013-04-30 12:35:00,55.1,29.3,30.24,WSW,248,5.8,5.8,37,0.00,CLR,,0.00,WeatherDisplay:10.37,2013-04-30 11:35:00,
2013-04-30 12:40:00,55.2,30.0,30.24,South,186,10.4,10.4,38,0.00,CLR,,0.00,WeatherDisplay:10.37,2013-04-30 11:40:00,
2013-04-30 12:45:00,55.2,29.4,30.24,West,269,6.9,6.9,37,0.00,CLR,,0.00,WeatherDisplay:10.37,2013-04-30 11:45:00,
2013-04-30 12:50:00,55.0,29.2,30.24,WSW,240,8.1,8.1,37,0.00,CLR,,0.00,WeatherDisplay:10.37,2013-04-30 11:50:00,
2013-04-30 12:55:00,55.3,30.7,30.24,SSW,207,6.0,6.0,39,0.00,CLR,,0.00,WeatherDisplay:10.37,2013-04-30 11:55:00,
2013-04-30 13:00:00,55.8,30.5,30.24,WSW,240,9.2,9.2,38,0.00,CLR,,0.00,WeatherDisplay:10.37,2013-04-30 12:00:00,
2013-04-30 13:05:00,56.0,29.4,30.24,SSW,209,9.2,9.2,36,0.00,CLR,,0.00,WeatherDisplay:10.37,2013-04-30 12:05:00,
2013-04-30 13:10:00,56.3,28.3,30.24,SSW,192,12.7,12.7,34,0.00,CLR,,0.00,WeatherDisplay:10.37,2013-04-30 12:10:00,
2013-04-30 13:15:00,56.3,27.5,30.23,South,188,12.7,12.7,33,0.00,CLR,,0.00,WeatherDisplay:10.37,2013-04-30 12:15:00,
2013-04-30 13:20:00,56.0,27.3,30.23,WNW,286,6.9,6.9,33,0.00,CLR,,0.00,WeatherDisplay:10.37,2013-04-30 12:20:00,
2013-04-30 13:25:00,56.2,28.2,30.23,WSW,242,11.5,11.5,34,0.00,CLR,,0.00,WeatherDisplay:10.37,2013-04-30 12:25:00,
2013-04-30 13:30:00,56.5,27.7,30.23,SW,236,8.1,8.1,33,0.00,CLR,,0.00,WeatherDisplay:10.37,2013-04-30 12:30:00,
2013-04-30 13:35:00,56.9,29.5,30.23,SW,219,6.9,6.9,35,0.00,CLR,,0.00,WeatherDisplay:10.37,2013-04-30 12:35:00,
2013-04-30 13:40:00,57.2,27.6,30.23,WSW,237,8.1,8.1,32,0.00,CLR,,0.00,WeatherDisplay:10.37,2013-04-30 12:40:00,
2013-04-30 13:45:00,57.3,28.4,30.23,West,259,6.9,6.9,33,0.00,CLR,,0.00,WeatherDisplay:10.37,2013-04-30 12:45:00,
2013-04-30 13:50:00,57.2,27.6,30.23,SW,219,12.7,12.7,32,0.00,CLR,,0.00,WeatherDisplay:10.37,2013-04-30 12:50:00,
2013-04-30 13:55:00,57.3,26.9,30.23,West,269,12.7,12.7,31,0.00,CLR,,0.00,WeatherDisplay:10.37,2013-04-30 12:55:00,
2013-04-30 14:00:00,57.0,28.9,30.23,WSW,248,19.6,19.6,34,0.00,CLR,,0.00,WeatherDisplay:10.37,2013-04-30 13:00:00,
2013-04-30 14:05:00,56.9,27.3,30.23,WSW,254,15.0,15.0,32,0.00,CLR,,0.00,WeatherDisplay:10.37,2013-04-30 13:05:00,
2013-04-30 14:10:00,56.6,28.5,30.23,West,268,11.0,11.0,34,0.00,CLR,,0.00,WeatherDisplay:10.37,2013-04-30 13:10:00,
2013-04-30 14:15:00,56.9,27.3,30.23,West,279,13.8,13.8,32,0.00,CLR,,0.00,WeatherDisplay:10.37,2013-04-30 13:15:00,
2013-04-30 14:20:00,56.6,27.0,30.23,WSW,238,6.9,6.9,32,0.00,CLR,,0.00,WeatherDisplay:10.37,2013-04-30 13:20:00,
2013-04-30 14:25:00,57.0,28.1,30.23,SW,234,12.7,12.7,33,0.00,CLR,,0.00,WeatherDisplay:10.37,2013-04-30 13:25:00,
2013-04-30 14:30:00,57.5,29.3,30.23,SSW,211,8.1,8.1,34,0.00,CLR,,0.00,WeatherDisplay:10.37,2013-04-30 13:30:00,
2013-04-30 14:35:00,57.8,30.3,30.23,SW,217,11.5,11.5,35,0.00,CLR,,0.00,WeatherDisplay:10.37,2013-04-30 13:35:00,
2013-04-30 14:40:00,58.1,29.8,30.23,West,261,15.0,15.0,34,0.00,CLR,,0.00,WeatherDisplay:10.37,2013-04-30 13:40:00,
2013-04-30 14:45:00,58.1,29.8,30.22,West,267,10.0,10.0,34,0.00,CLR,,0.00,WeatherDisplay:10.37,2013-04-30 13:45:00,
2013-04-30 14:50:00,58.2,31.3,30.22,WSW,254,11.0,11.0,36,0.00,CLR,,0.00,WeatherDisplay:10.37,2013-04-30 13:50:00,
2013-04-30 14:55:00,58.3,28.5,30.22,WSW,242,16.1,16.1,32,0.00,CLR,,0.00,WeatherDisplay:10.37,2013-04-30 13:55:00,
2013-04-30 15:00:00,57.9,30.4,30.21,West,263,11.0,11.0,35,0.00,CLR,,0.00,WeatherDisplay:10.37,2013-04-30 14:00:00,
2013-04-30 15:05:00,58.0,30.5,30.21,West,276,17.3,17.3,35,0.00,CLR,,0.00,WeatherDisplay:10.37,2013-04-30 14:05:00,
2013-04-30 15:10:00,58.2,31.3,30.21,WNW,289,15.0,15.0,36,0.00,CLR,,0.00,WeatherDisplay:10.37,2013-04-30 14:10:00,
2013-04-30 15:15:00,58.0,30.5,30.22,WSW,255,16.1,16.1,35,0.00,CLR,,0.00,WeatherDisplay:10.37,2013-04-30 14:15:00,
2013-04-30 15:20:00,57.6,32.2,30.22,WNW,292,5.8,5.8,38,0.00,CLR,,0.00,WeatherDisplay:10.37,2013-04-30 14:20:00,
2013-04-30 15:25:00,58.0,30.5,30.22,West,267,16.1,16.1,35,0.00,CLR,,0.00,WeatherDisplay:10.37,2013-04-30 14:25:00,
2013-04-30 15:30:00,57.6,30.1,30.21,SSW,192,9.2,9.2,35,0.00,CLR,,0.00,WeatherDisplay:10.37,2013-04-30 14:30:00,
2013-04-30 15:35:00,57.8,28.9,30.21,WSW,237,13.8,13.8,33,0.00,CLR,,0.00,WeatherDisplay:10.37,2013-04-30 14:35:00,
2013-04-30 15:40:00,57.8,29.6,30.21,South,185,10.4,10.4,34,0.00,CLR,,0.00,WeatherDisplay:10.37,2013-04-30 14:40:00,
2013-04-30 15:45:00,58.0,27.5,30.21,SW,235,17.3,17.3,31,0.00,CLR,,0.00,WeatherDisplay:10.37,2013-04-30 14:45:00,
2013-04-30 15:50:00,58.0,25.9,30.21,SW,221,12.0,12.0,29,0.00,CLR,,0.00,WeatherDisplay:10.37,2013-04-30 14:50:00,
2013-04-30 15:55:00,57.8,26.5,30.21,West,269,14.0,14.0,30,0.00,CLR,,0.00,WeatherDisplay:10.37,2013-04-30 14:55:00,
2013-04-30 16:00:00,57.9,24.1,30.20,SW,226,11.5,11.5,27,0.00,CLR,,0.00,WeatherDisplay:10.37,2013-04-30 15:00:00,
2013-04-30 16:05:00,58.0,24.2,30.20,WNW,284,10.4,10.4,27,0.00,CLR,,0.00,WeatherDisplay:10.37,2013-04-30 15:05:00,
2013-04-30 16:10:00,58.3,23.5,30.20,SSW,211,13.0,13.0,26,0.00,CLR,,0.00,WeatherDisplay:10.37,2013-04-30 15:10:00,
2013-04-30 16:15:00,58.6,24.7,30.20,SW,227,12.7,12.7,27,0.00,CLR,,0.00,WeatherDisplay:10.37,2013-04-30 15:15:00,
2013-04-30 16:20:00,58.5,25.5,30.20,South,184,10.4,10.4,28,0.00,CLR,,0.00,WeatherDisplay:10.37,2013-04-30 15:20:00,
2013-04-30 16:25:00,58.5,26.3,30.20,WSW,258,17.3,17.3,29,0.00,CLR,,0.00,WeatherDisplay:10.37,2013-04-30 15:25:00,
2013-04-30 16:30:00,58.2,27.7,30.19,SSW,205,16.1,16.1,31,0.00,CLR,,0.00,WeatherDisplay:10.37,2013-04-30 15:30:00,
2013-04-30 16:35:00,58.2,29.2,30.19,SW,227,11.5,11.5,33,0.00,CLR,,0.00,WeatherDisplay:10.37,2013-04-30 15:35:00,
2013-04-30 16:40:00,58.3,30.7,30.19,West,271,17.3,17.3,35,0.00,CLR,,0.00,WeatherDisplay:10.37,2013-04-30 15:40:00,
2013-04-30 16:45:00,58.2,31.3,30.19,West,271,11.5,11.5,36,0.00,CLR,,0.00,WeatherDisplay:10.37,2013-04-30 15:45:00,
2013-04-30 16:50:00,58.2,29.9,30.19,SSW,201,11.5,11.5,34,0.00,CLR,,0.00,WeatherDisplay:10.37,2013-04-30 15:50:00,
2013-04-30 16:55:00,58.0,29.0,30.19,West,277,11.5,11.5,33,0.00,CLR,,0.00,WeatherDisplay:10.37,2013-04-30 15:55:00,
2013-04-30 17:00:00,57.9,31.1,30.18,WSW,248,17.3,17.3,36,0.00,CLR,,0.00,WeatherDisplay:10.37,2013-04-30 16:00:00,
2013-04-30 17:05:00,57.7,31.6,30.18,WSW,254,13.8,13.8,37,0.00,CLR,,0.00,WeatherDisplay:10.37,2013-04-30 16:05:00,
2013-04-30 17:10:00,57.7,30.2,30.18,West,262,13.8,13.8,35,0.00,CLR,,0.00,WeatherDisplay:10.37,2013-04-30 16:10:00,
2013-04-30 17:15:00,57.8,30.3,30.18,SW,217,12.7,12.7,35,0.00,CLR,,0.00,WeatherDisplay:10.37,2013-04-30 16:15:00,
2013-04-30 17:20:00,57.9,30.4,30.18,SW,217,10.4,10.4,35,0.00,CLR,,0.00,WeatherDisplay:10.37,2013-04-30 16:20:00,
2013-04-30 17:25:00,58.0,30.5,30.18,SSW,200,13.8,13.8,35,0.00,CLR,,0.00,WeatherDisplay:10.37,2013-04-30 16:25:00,
2013-04-30 17:31:00,57.8,29.6,30.18,West,260,18.4,18.4,34,0.00,CLR,,0.00,WeatherDisplay:10.37,2013-04-30 16:31:00,
2013-04-30 17:36:00,57.5,30.7,30.18,West,265,12.7,12.7,36,0.00,CLR,,0.00,WeatherDisplay:10.37,2013-04-30 16:36:00,
2013-04-30 17:41:00,57.3,29.1,30.18,WNW,294,17.3,17.3,34,0.00,CLR,,0.00,WeatherDisplay:10.37,2013-04-30 16:41:00,
2013-04-30 17:46:00,56.6,28.5,30.18,WSW,251,11.5,11.5,34,0.00,CLR,,0.00,WeatherDisplay:10.37,2013-04-30 16:46:00,
2013-04-30 17:51:00,56.5,29.8,30.18,SSE,159,12.7,12.7,36,0.00,CLR,,0.00,WeatherDisplay:10.37,2013-04-30 16:51:00,
2013-04-30 17:56:00,56.7,30.7,30.18,SSW,205,11.5,11.5,37,0.00,CLR,,0.00,WeatherDisplay:10.37,2013-04-30 16:56:00,
2013-04-30 18:01:00,57.0,30.3,30.18,SSW,200,11.0,11.0,36,0.00,CLR,,0.00,WeatherDisplay:10.37,2013-04-30 17:01:00,
2013-04-30 18:06:00,57.1,32.4,30.18,West,275,13.8,13.8,39,0.00,CLR,,0.00,WeatherDisplay:10.37,2013-04-30 17:06:00,
2013-04-30 18:11:00,57.1,31.7,30.18,South,182,9.2,9.2,38,0.00,CLR,,0.00,WeatherDisplay:10.37,2013-04-30 17:11:00,
2013-04-30 18:16:00,56.9,31.5,30.18,SW,223,13.8,13.8,38,0.00,CLR,,0.00,WeatherDisplay:10.37,2013-04-30 17:16:00,
2013-04-30 18:21:00,56.7,32.6,30.18,West,279,11.5,11.5,40,0.00,CLR,,0.00,WeatherDisplay:10.37,2013-04-30 17:21:00,
2013-04-30 18:26:00,56.3,33.5,30.18,WNW,288,15.0,15.0,42,0.00,CLR,,0.00,WeatherDisplay:10.37,2013-04-30 17:26:00,
2013-04-30 18:31:00,55.7,33.5,30.17,WNW,282,8.1,8.1,43,0.00,CLR,,0.00,WeatherDisplay:10.37,2013-04-30 17:31:00,
2013-04-30 18:36:00,55.4,33.8,30.17,West,266,10.4,10.4,44,0.00,CLR,,0.00,WeatherDisplay:10.37,2013-04-30 17:36:00,
2013-04-30 18:41:00,55.0,33.5,30.17,WSW,238,16.1,16.1,44,0.00,CLR,,0.00,WeatherDisplay:10.37,2013-04-30 17:41:00,
2013-04-30 18:46:00,54.8,33.8,30.17,WSW,257,10.4,10.4,45,0.00,CLR,,0.00,WeatherDisplay:10.37,2013-04-30 17:46:00,
2013-04-30 18:51:00,54.6,34.8,30.17,West,271,10.4,10.4,47,0.00,CLR,,0.00,WeatherDisplay:10.37,2013-04-30 17:51:00,
2013-04-30 18:56:00,54.3,34.5,30.17,WSW,252,15.0,15.0,47,0.00,CLR,,0.00,WeatherDisplay:10.37,2013-04-30 17:56:00,
2013-04-30 19:01:00,54.1,34.8,30.17,West,280,18.4,18.4,48,0.00,CLR,,0.00,WeatherDisplay:10.37,2013-04-30 18:01:00,
2013-04-30 19:06:00,53.7,34.5,30.17,West,263,16.1,16.1,48,0.00,CLR,,0.00,WeatherDisplay:10.37,2013-04-30 18:06:00,
2013-04-30 19:11:00,53.3,34.6,30.17,West,278,16.1,16.1,49,0.00,CLR,,0.00,WeatherDisplay:10.37,2013-04-30 18:11:00,
2013-04-30 19:16:00,52.9,34.8,30.18,WSW,252,13.8,13.8,50,0.00,CLR,,0.00,WeatherDisplay:10.37,2013-04-30 18:16:00,
2013-04-30 19:21:00,52.6,34.5,30.18,West,259,10.4,10.4,50,0.00,CLR,,0.00,WeatherDisplay:10.37,2013-04-30 18:21:00,
2013-04-30 19:26:00,52.3,35.7,30.18,West,260,11.5,11.5,53,0.00,CLR,,0.00,WeatherDisplay:10.37,2013-04-30 18:26:00,
2013-04-30 19:31:00,52.1,35.5,30.18,West,277,9.2,9.2,53,0.00,CLR,,0.00,WeatherDisplay:10.37,2013-04-30 18:31:00,
2013-04-30 19:36:00,52.1,35.5,30.18,WNW,289,11.5,11.5,53,0.00,CLR,,0.00,WeatherDisplay:10.37,2013-04-30 18:36:00,
2013-04-30 19:41:00,51.9,35.3,30.18,SSW,203,12.7,12.7,53,0.00,CLR,,0.00,WeatherDisplay:10.37,2013-04-30 18:41:00,
2013-04-30 19:46:00,51.7,35.6,30.17,WSW,242,12.7,12.7,54,0.00,CLR,,0.00,WeatherDisplay:10.37,2013-04-30 18:46:00,
2013-04-30 19:51:00,51.6,35.0,30.17,SW,224,11.5,11.5,53,0.00,CLR,,0.00,WeatherDisplay:10.37,2013-04-30 18:51:00,
2013-04-30 19:56:00,51.4,35.3,30.17,West,280,10.4,10.4,54,0.00,CLR,,0.00,WeatherDisplay:10.37,2013-04-30 18:56:00,
2013-04-30 20:01:00,51.3,35.7,30.17,WSW,254,5.8,5.8,55,0.00,CLR,,0.00,WeatherDisplay:10.37,2013-04-30 19:01:00,
2013-04-30 20:06:00,51.2,35.6,30.17,South,191,10.4,10.4,55,0.00,CLR,,0.00,WeatherDisplay:10.37,2013-04-30 19:06:00,
2013-04-30 20:11:00,51.1,35.5,30.17,SSW,211,10.4,10.4,55,0.00,CLR,,0.00,WeatherDisplay:10.37,2013-04-30 19:11:00,
2013-04-30 20:16:00,51.0,35.4,30.17,SW,235,9.2,9.2,55,0.00,CLR,,0.00,WeatherDisplay:10.37,2013-04-30 19:16:00,
2013-04-30 20:21:00,50.9,35.7,30.17,SW,221,6.9,6.9,56,0.00,CLR,,0.00,WeatherDisplay:10.37,2013-04-30 19:21:00,
2013-04-30 20:26:00,50.8,35.7,30.17,SW,234,4.6,4.6,56,0.00,CLR,,0.00,WeatherDisplay:10.37,2013-04-30 19:26:00,
2013-04-30 20:31:00,50.6,35.5,30.17,SW,225,9.2,9.2,56,0.00,CLR,,0.00,WeatherDisplay:10.37,2013-04-30 19:31:00,
2013-04-30 20:36:00,50.5,35.8,30.17,WNW,282,5.8,5.8,57,0.00,CLR,,0.00,WeatherDisplay:10.37,2013-04-30 19:36:00,
2013-04-30 20:41:00,50.3,35.6,30.17,WSW,252,7.0,7.0,57,0.00,CLR,,0.00,WeatherDisplay:10.37,2013-04-30 19:41:00,
2013-04-30 20:46:00,50.0,35.8,30.17,SW,228,11.5,11.5,58,0.00,CLR,,0.00,WeatherDisplay:10.37,2013-04-30 19:46:00,
2013-04-30 20:51:00,49.8,35.6,30.17,SW,227,4.0,4.0,58,0.00,CLR,,0.00,WeatherDisplay:10.37,2013-04-30 19:51:00,
2013-04-30 20:56:00,49.6,35.8,30.17,WSW,240,11.5,11.5,59,0.00,CLR,,0.00,WeatherDisplay:10.37,2013-04-30 19:56:00,
2013-04-30 21:01:00,49.4,35.7,30.17,SW,227,6.9,6.9,59,0.00,CLR,,0.00,WeatherDisplay:10.37,2013-04-30 20:01:00,
2013-04-30 21:06:00,49.3,36.0,30.17,SW,226,6.9,6.9,60,0.00,CLR,,0.00,WeatherDisplay:10.37,2013-04-30 20:06:00,
2013-04-30 21:11:00,49.1,35.8,30.17,SW,220,6.0,6.0,60,0.00,CLR,,0.00,WeatherDisplay:10.37,2013-04-30 20:11:00,
2013-04-30 21:16:00,49.0,36.1,30.17,SSW,211,4.0,4.0,61,0.00,CLR,,0.00,WeatherDisplay:10.37,2013-04-30 20:16:00,
2013-04-30 21:21:00,48.7,35.8,30.17,SW,236,3.5,3.5,61,0.00,CLR,,0.00,WeatherDisplay:10.37,2013-04-30 20:21:00,
2013-04-30 21:26:00,48.6,36.2,30.17,SW,235,4.6,4.6,62,0.00,CLR,,0.00,WeatherDisplay:10.37,2013-04-30 20:26:00,
2013-04-30 21:31:00,48.4,36.0,30.17,SW,236,4.6,4.6,62,0.00,CLR,,0.00,WeatherDisplay:10.37,2013-04-30 20:31:00,
2013-04-30 21:36:00,48.2,36.2,30.17,SW,236,3.5,3.5,63,0.00,CLR,,0.00,WeatherDisplay:10.37,2013-04-30 20:36:00,
2013-04-30 21:41:00,47.9,36.3,30.17,SW,235,3.5,3.5,64,0.00,CLR,,0.00,WeatherDisplay:10.37,2013-04-30 20:41:00,
2013-04-30 21:46:00,47.7,36.1,30.17,SW,236,3.5,3.5,64,0.00,CLR,,0.00,WeatherDisplay:10.37,2013-04-30 20:46:00,
2013-04-30 21:51:00,47.6,36.0,30.17,SW,224,6.9,6.9,64,0.00,CLR,,0.00,WeatherDisplay:10.37,2013-04-30 20:51:00,
2013-04-30 21:56:00,47.4,35.8,30.17,SW,220,5.8,5.8,64,0.00,CLR,,0.00,WeatherDisplay:10.37,2013-04-30 20:56:00,
2013-04-30 22:01:00,47.3,36.1,30.17,SW,220,3.5,3.5,65,0.00,CLR,,0.00,WeatherDisplay:10.37,2013-04-30 21:01:00,
2013-04-30 22:06:00,47.3,36.1,30.17,SW,230,5.0,5.0,65,0.00,CLR,,0.00,WeatherDisplay:10.37,2013-04-30 21:06:00,
2013-04-30 22:11:00,47.1,35.5,30.17,SW,232,6.0,6.0,64,0.00,CLR,,0.00,WeatherDisplay:10.37,2013-04-30 21:11:00,
2013-04-30 22:16:00,47.1,35.5,30.17,SSW,211,6.9,6.9,64,0.00,CLR,,0.00,WeatherDisplay:10.37,2013-04-30 21:16:00,
2013-04-30 22:21:00,47.0,35.4,30.17,SW,220,4.6,4.6,64,0.00,CLR,,0.00,WeatherDisplay:10.37,2013-04-30 21:21:00,
2013-04-30 22:26:00,47.0,35.8,30.17,SW,219,6.0,6.0,65,0.00,CLR,,0.00,WeatherDisplay:10.37,2013-04-30 21:26:00,
2013-04-30 22:31:00,46.9,35.7,30.16,SSW,212,5.8,5.8,65,0.00,CLR,,0.00,WeatherDisplay:10.37,2013-04-30 21:31:00,
2013-04-30 22:36:00,46.8,35.6,30.16,SSW,213,5.8,5.8,65,0.00,CLR,,0.00,WeatherDisplay:10.37,2013-04-30 21:36:00,
2013-04-30 22:41:00,46.7,35.9,30.16,SSW,212,4.6,4.6,66,0.00,CLR,,0.00,WeatherDisplay:10.37,2013-04-30 21:41:00,
2013-04-30 22:46:00,46.7,36.3,30.16,South,188,6.0,6.0,67,0.00,CLR,,0.00,WeatherDisplay:10.37,2013-04-30 21:46:00,
2013-04-30 22:51:00,46.5,36.1,30.16,South,182,9.2,9.2,67,0.00,CLR,,0.00,WeatherDisplay:10.37,2013-04-30 21:51:00,
2013-04-30 22:56:00,46.5,36.1,30.16,SSW,194,7.0,7.0,67,0.00,CLR,,0.00,WeatherDisplay:10.37,2013-04-30 21:56:00,
2013-04-30 23:01:00,46.4,36.0,30.16,SSW,209,10.4,10.4,67,0.00,CLR,,0.00,WeatherDisplay:10.37,2013-04-30 22:01:00,
2013-04-30 23:06:00,46.3,35.9,30.16,SSW,206,4.6,4.6,67,0.00,CLR,,0.00,WeatherDisplay:10.37,2013-04-30 22:06:00,
2013-04-30 23:11:00,46.3,36.3,30.16,SSW,198,6.9,6.9,68,0.00,CLR,,0.00,WeatherDisplay:10.37,2013-04-30 22:11:00,
2013-04-30 23:16:00,46.3,36.7,30.16,SSW,194,10.4,10.4,69,0.00,CLR,,0.00,WeatherDisplay:10.37,2013-04-30 22:16:00,
2013-04-30 23:21:00,46.3,36.7,30.16,SSW,209,4.6,4.6,69,0.00,CLR,,0.00,WeatherDisplay:10.37,2013-04-30 22:21:00,
2013-04-30 23:26:00,46.3,36.3,30.16,WSW,250,6.9,6.9,68,0.00,CLR,,0.00,WeatherDisplay:10.37,2013-04-30 22:26:00,
2013-04-30 23:31:00,46.5,36.5,30.16,SW,219,9.2,9.2,68,0.00,CLR,,0.00,WeatherDisplay:10.37,2013-04-30 22:31:00,
2013-04-30 23:36:00,46.6,36.2,30.16,SW,226,10.4,10.4,67,0.00,CLR,,0.00,WeatherDisplay:10.37,2013-04-30 22:36:00,
2013-04-30 23:41:00,46.7,35.9,30.16,SSW,195,6.9,6.9,66,0.00,CLR,,0.00,WeatherDisplay:10.37,2013-04-30 22:41:00,
2013-04-30 23:46:00,46.8,35.6,30.15,SW,223,10.4,10.4,65,0.00,CLR,,0.00,WeatherDisplay:10.37,2013-04-30 22:46:00,
2013-04-30 23:51:00,46.9,35.4,30.15,SSW,195,6.9,6.9,64,0.00,CLR,,0.00,WeatherDisplay:10.37,2013-04-30 22:51:00,
2013-04-30 23:56:00,46.9,35.4,30.15,SW,231,9.2,9.2,64,0.00,CLR,,0.00,WeatherDisplay:10.37,2013-04-30 22:56:00,